sensor_id;sensor_type;location;lat;lon;timestamp;P1;durP1;ratioP1;P2;durP2;ratioP2
17151;SDS011;8691;50.828;4.700;2023-02-15T00:01:34;29.48;;;22.40;;
17151;SDS011;8691;50.828;4.700;2023-02-15T00:04:02;27.83;;;22.57;;
17151;SDS011;8691;50.828;4.700;2023-02-15T00:06:29;29.25;;;22.08;;
17151;SDS011;8691;50.828;4.700;2023-02-15T00:08:57;29.20;;;21.58;;
17151;SDS011;8691;50.828;4.700;2023-02-15T00:11:25;26.80;;;20.65;;
17151;SDS011;8691;50.828;4.700;2023-02-15T00:14:08;27.77;;;21.90;;
17151;SDS011;8691;50.828;4.700;2023-02-15T00:16:35;27.40;;;21.17;;
17151;SDS011;8691;50.828;4.700;2023-02-15T00:19:01;24.52;;;20.48;;
17151;SDS011;8691;50.828;4.700;2023-02-15T00:21:28;21.83;;;14.63;;
17151;SDS011;8691;50.828;4.700;2023-02-15T00:23:55;29.45;;;20.80;;
17151;SDS011;8691;50.828;4.700;2023-02-15T00:26:22;25.90;;;20.50;;
17151;SDS011;8691;50.828;4.700;2023-02-15T00:28:49;27.27;;;20.43;;
17151;SDS011;8691;50.828;4.700;2023-02-15T00:31:17;27.80;;;20.20;;
17151;SDS011;8691;50.828;4.700;2023-02-15T00:33:44;25.52;;;20.33;;
17151;SDS011;8691;50.828;4.700;2023-02-15T00:36:11;26.12;;;20.15;;
17151;SDS011;8691;50.828;4.700;2023-02-15T00:38:38;27.00;;;20.52;;
17151;SDS011;8691;50.828;4.700;2023-02-15T00:41:05;25.57;;;19.77;;
17151;SDS011;8691;50.828;4.700;2023-02-15T00:43:32;26.47;;;20.67;;
17151;SDS011;8691;50.828;4.700;2023-02-15T00:45:58;27.77;;;21.83;;
17151;SDS011;8691;50.828;4.700;2023-02-15T00:48:25;27.03;;;21.73;;
17151;SDS011;8691;50.828;4.700;2023-02-15T00:50:53;29.17;;;21.57;;
17151;SDS011;8691;50.828;4.700;2023-02-15T00:53:19;31.03;;;22.63;;
17151;SDS011;8691;50.828;4.700;2023-02-15T00:55:46;28.83;;;21.80;;
17151;SDS011;8691;50.828;4.700;2023-02-15T00:58:13;28.65;;;22.77;;
17151;SDS011;8691;50.828;4.700;2023-02-15T01:00:40;31.90;;;23.48;;
17151;SDS011;8691;50.828;4.700;2023-02-15T01:03:06;29.77;;;23.90;;
17151;SDS011;8691;50.828;4.700;2023-02-15T01:05:33;34.10;;;25.73;;
17151;SDS011;8691;50.828;4.700;2023-02-15T01:08:00;41.15;;;30.00;;
17151;SDS011;8691;50.828;4.700;2023-02-15T01:10:27;39.72;;;28.12;;
17151;SDS011;8691;50.828;4.700;2023-02-15T01:12:54;35.67;;;27.27;;
17151;SDS011;8691;50.828;4.700;2023-02-15T01:15:21;36.10;;;26.57;;
17151;SDS011;8691;50.828;4.700;2023-02-15T01:17:48;36.10;;;26.73;;
17151;SDS011;8691;50.828;4.700;2023-02-15T01:20:21;36.55;;;27.40;;
17151;SDS011;8691;50.828;4.700;2023-02-15T01:22:44;26.97;;;19.23;;
17151;SDS011;8691;50.828;4.700;2023-02-15T01:25:11;36.97;;;26.93;;
17151;SDS011;8691;50.828;4.700;2023-02-15T01:27:38;37.40;;;28.10;;
17151;SDS011;8691;50.828;4.700;2023-02-15T01:30:05;35.23;;;26.97;;
17151;SDS011;8691;50.828;4.700;2023-02-15T01:32:31;28.37;;;20.97;;
17151;SDS011;8691;50.828;4.700;2023-02-15T01:34:59;37.10;;;28.13;;
17151;SDS011;8691;50.828;4.700;2023-02-15T01:37:26;41.75;;;29.10;;
17151;SDS011;8691;50.828;4.700;2023-02-15T01:39:53;37.03;;;26.93;;
17151;SDS011;8691;50.828;4.700;2023-02-15T01:42:26;40.87;;;29.30;;
17151;SDS011;8691;50.828;4.700;2023-02-15T01:44:54;40.35;;;29.45;;
17151;SDS011;8691;50.828;4.700;2023-02-15T01:50:00;37.35;;;27.65;;
17151;SDS011;8691;50.828;4.700;2023-02-15T01:52:25;37.90;;;28.20;;
17151;SDS011;8691;50.828;4.700;2023-02-15T01:54:52;37.03;;;27.77;;
17151;SDS011;8691;50.828;4.700;2023-02-15T01:57:19;40.33;;;28.80;;
17151;SDS011;8691;50.828;4.700;2023-02-15T01:59:46;36.03;;;28.30;;
17151;SDS011;8691;50.828;4.700;2023-02-15T02:02:13;39.47;;;27.90;;
17151;SDS011;8691;50.828;4.700;2023-02-15T02:04:47;35.67;;;27.13;;
17151;SDS011;8691;50.828;4.700;2023-02-15T02:07:12;37.15;;;27.58;;
17151;SDS011;8691;50.828;4.700;2023-02-15T02:09:38;36.60;;;28.10;;
17151;SDS011;8691;50.828;4.700;2023-02-15T02:12:05;40.78;;;29.73;;
17151;SDS011;8691;50.828;4.700;2023-02-15T02:14:32;36.65;;;27.98;;
17151;SDS011;8691;50.828;4.700;2023-02-15T02:19:37;38.37;;;29.17;;
17151;SDS011;8691;50.828;4.700;2023-02-15T02:22:37;41.40;;;28.57;;
17151;SDS011;8691;50.828;4.700;2023-02-15T02:33:32;39.62;;;28.67;;
17151;SDS011;8691;50.828;4.700;2023-02-15T02:36:34;36.78;;;27.80;;
17151;SDS011;8691;50.828;4.700;2023-02-15T02:42:21;37.38;;;27.38;;
17151;SDS011;8691;50.828;4.700;2023-02-15T02:44:49;34.22;;;26.77;;
17151;SDS011;8691;50.828;4.700;2023-02-15T02:49:44;34.12;;;26.27;;
17151;SDS011;8691;50.828;4.700;2023-02-15T02:55:13;35.17;;;27.07;;
17151;SDS011;8691;50.828;4.700;2023-02-15T02:57:36;36.38;;;28.10;;
17151;SDS011;8691;50.828;4.700;2023-02-15T03:00:03;40.10;;;28.48;;
17151;SDS011;8691;50.828;4.700;2023-02-15T03:02:32;38.58;;;27.65;;
17151;SDS011;8691;50.828;4.700;2023-02-15T03:04:58;35.38;;;27.23;;
17151;SDS011;8691;50.828;4.700;2023-02-15T03:07:26;33.25;;;25.83;;
17151;SDS011;8691;50.828;4.700;2023-02-15T03:09:53;34.70;;;27.10;;
17151;SDS011;8691;50.828;4.700;2023-02-15T03:12:20;36.20;;;26.95;;
17151;SDS011;8691;50.828;4.700;2023-02-15T03:15:06;36.10;;;27.47;;
17151;SDS011;8691;50.828;4.700;2023-02-15T03:17:36;34.97;;;27.03;;
17151;SDS011;8691;50.828;4.700;2023-02-15T03:20:04;34.20;;;26.53;;
17151;SDS011;8691;50.828;4.700;2023-02-15T03:22:33;40.53;;;27.50;;
17151;SDS011;8691;50.828;4.700;2023-02-15T03:25:05;36.65;;;27.67;;
17151;SDS011;8691;50.828;4.700;2023-02-15T03:27:31;36.72;;;27.48;;
17151;SDS011;8691;50.828;4.700;2023-02-15T03:29:58;33.63;;;26.40;;
17151;SDS011;8691;50.828;4.700;2023-02-15T03:32:25;34.10;;;26.07;;
17151;SDS011;8691;50.828;4.700;2023-02-15T03:34:51;35.83;;;26.90;;
17151;SDS011;8691;50.828;4.700;2023-02-15T03:37:21;37.00;;;27.00;;
17151;SDS011;8691;50.828;4.700;2023-02-15T03:39:56;36.40;;;26.67;;
17151;SDS011;8691;50.828;4.700;2023-02-15T03:42:31;36.23;;;26.83;;
17151;SDS011;8691;50.828;4.700;2023-02-15T03:44:58;35.77;;;26.90;;
17151;SDS011;8691;50.828;4.700;2023-02-15T03:47:29;37.00;;;27.73;;
17151;SDS011;8691;50.828;4.700;2023-02-15T03:50:16;34.43;;;26.97;;
17151;SDS011;8691;50.828;4.700;2023-02-15T03:52:35;35.55;;;26.62;;
17151;SDS011;8691;50.828;4.700;2023-02-15T03:55:02;37.30;;;27.10;;
17151;SDS011;8691;50.828;4.700;2023-02-15T03:57:29;35.30;;;27.77;;
17151;SDS011;8691;50.828;4.700;2023-02-15T04:00:15;30.30;;;21.43;;
17151;SDS011;8691;50.828;4.700;2023-02-15T04:05:52;38.60;;;28.87;;
17151;SDS011;8691;50.828;4.700;2023-02-15T04:08:19;39.55;;;30.12;;
17151;SDS011;8691;50.828;4.700;2023-02-15T04:10:46;40.25;;;29.12;;
17151;SDS011;8691;50.828;4.700;2023-02-15T04:13:23;38.30;;;28.40;;
17151;SDS011;8691;50.828;4.700;2023-02-15T04:15:49;35.70;;;28.00;;
17151;SDS011;8691;50.828;4.700;2023-02-15T04:18:32;37.58;;;27.58;;
17151;SDS011;8691;50.828;4.700;2023-02-15T04:21:25;30.60;;;21.17;;
17151;SDS011;8691;50.828;4.700;2023-02-15T04:24:09;26.87;;;19.93;;
17151;SDS011;8691;50.828;4.700;2023-02-15T04:26:54;28.40;;;20.10;;
17151;SDS011;8691;50.828;4.700;2023-02-15T04:29:22;36.43;;;26.80;;
17151;SDS011;8691;50.828;4.700;2023-02-15T04:31:49;35.63;;;27.87;;
17151;SDS011;8691;50.828;4.700;2023-02-15T04:34:15;37.00;;;27.98;;
17151;SDS011;8691;50.828;4.700;2023-02-15T04:36:42;38.57;;;28.13;;
17151;SDS011;8691;50.828;4.700;2023-02-15T04:39:09;39.80;;;28.97;;
17151;SDS011;8691;50.828;4.700;2023-02-15T04:41:36;38.07;;;28.90;;
17151;SDS011;8691;50.828;4.700;2023-02-15T04:44:03;39.17;;;29.17;;
17151;SDS011;8691;50.828;4.700;2023-02-15T04:46:30;39.47;;;29.55;;
17151;SDS011;8691;50.828;4.700;2023-02-15T04:48:57;38.67;;;29.73;;
17151;SDS011;8691;50.828;4.700;2023-02-15T04:51:24;36.55;;;29.15;;
17151;SDS011;8691;50.828;4.700;2023-02-15T04:53:51;36.72;;;28.65;;
17151;SDS011;8691;50.828;4.700;2023-02-15T04:56:18;39.00;;;28.80;;
17151;SDS011;8691;50.828;4.700;2023-02-15T04:58:44;38.85;;;28.80;;
17151;SDS011;8691;50.828;4.700;2023-02-15T05:01:11;37.33;;;28.47;;
17151;SDS011;8691;50.828;4.700;2023-02-15T05:03:38;37.93;;;29.20;;
17151;SDS011;8691;50.828;4.700;2023-02-15T05:06:06;38.67;;;29.43;;
17151;SDS011;8691;50.828;4.700;2023-02-15T05:08:33;36.62;;;28.85;;
17151;SDS011;8691;50.828;4.700;2023-02-15T05:10:59;39.20;;;29.73;;
17151;SDS011;8691;50.828;4.700;2023-02-15T05:13:26;38.03;;;29.97;;
17151;SDS011;8691;50.828;4.700;2023-02-15T05:15:53;38.20;;;28.60;;
17151;SDS011;8691;50.828;4.700;2023-02-15T05:18:22;39.10;;;29.40;;
17151;SDS011;8691;50.828;4.700;2023-02-15T05:20:47;40.47;;;29.57;;
17151;SDS011;8691;50.828;4.700;2023-02-15T05:23:14;36.20;;;28.13;;
17151;SDS011;8691;50.828;4.700;2023-02-15T05:25:40;36.97;;;28.43;;
17151;SDS011;8691;50.828;4.700;2023-02-15T05:28:26;33.40;;;21.60;;
17151;SDS011;8691;50.828;4.700;2023-02-15T05:31:06;37.87;;;28.20;;
17151;SDS011;8691;50.828;4.700;2023-02-15T05:33:31;39.93;;;30.00;;
17151;SDS011;8691;50.828;4.700;2023-02-15T05:35:58;39.63;;;29.93;;
17151;SDS011;8691;50.828;4.700;2023-02-15T05:38:25;41.67;;;30.73;;
17151;SDS011;8691;50.828;4.700;2023-02-15T05:40:52;39.47;;;30.27;;
17151;SDS011;8691;50.828;4.700;2023-02-15T05:43:18;39.47;;;29.47;;
17151;SDS011;8691;50.828;4.700;2023-02-15T05:45:46;38.63;;;29.53;;
17151;SDS011;8691;50.828;4.700;2023-02-15T05:48:15;36.05;;;29.00;;
17151;SDS011;8691;50.828;4.700;2023-02-15T05:50:42;40.33;;;30.25;;
17151;SDS011;8691;50.828;4.700;2023-02-15T05:53:08;40.57;;;30.70;;
17151;SDS011;8691;50.828;4.700;2023-02-15T05:55:38;41.77;;;30.10;;
17151;SDS011;8691;50.828;4.700;2023-02-15T05:58:05;43.55;;;29.98;;
17151;SDS011;8691;50.828;4.700;2023-02-15T06:00:33;40.12;;;31.05;;
17151;SDS011;8691;50.828;4.700;2023-02-15T06:03:00;40.08;;;29.98;;
17151;SDS011;8691;50.828;4.700;2023-02-15T06:05:27;40.85;;;30.42;;
17151;SDS011;8691;50.828;4.700;2023-02-15T06:07:54;38.10;;;29.92;;
17151;SDS011;8691;50.828;4.700;2023-02-15T06:10:21;38.80;;;31.23;;
17151;SDS011;8691;50.828;4.700;2023-02-15T06:12:48;49.38;;;36.72;;
17151;SDS011;8691;50.828;4.700;2023-02-15T06:15:15;53.25;;;41.58;;
17151;SDS011;8691;50.828;4.700;2023-02-15T06:17:42;40.95;;;33.60;;
17151;SDS011;8691;50.828;4.700;2023-02-15T06:20:09;44.28;;;34.12;;
17151;SDS011;8691;50.828;4.700;2023-02-15T06:22:36;44.58;;;32.83;;
17151;SDS011;8691;50.828;4.700;2023-02-15T06:25:03;42.13;;;32.77;;
17151;SDS011;8691;50.828;4.700;2023-02-15T06:27:30;41.77;;;31.83;;
17151;SDS011;8691;50.828;4.700;2023-02-15T06:29:57;43.27;;;32.23;;
17151;SDS011;8691;50.828;4.700;2023-02-15T06:32:23;44.00;;;32.30;;
17151;SDS011;8691;50.828;4.700;2023-02-15T06:34:50;41.33;;;31.57;;
17151;SDS011;8691;50.828;4.700;2023-02-15T06:37:17;42.60;;;31.97;;
17151;SDS011;8691;50.828;4.700;2023-02-15T06:39:45;42.23;;;31.60;;
17151;SDS011;8691;50.828;4.700;2023-02-15T06:42:12;42.20;;;32.50;;
17151;SDS011;8691;50.828;4.700;2023-02-15T06:44:39;41.47;;;31.57;;
17151;SDS011;8691;50.828;4.700;2023-02-15T06:47:06;41.78;;;31.62;;
17151;SDS011;8691;50.828;4.700;2023-02-15T06:49:33;44.50;;;31.77;;
17151;SDS011;8691;50.828;4.700;2023-02-15T06:52:00;41.67;;;31.40;;
17151;SDS011;8691;50.828;4.700;2023-02-15T06:54:28;40.07;;;31.20;;
17151;SDS011;8691;50.828;4.700;2023-02-15T06:56:55;46.12;;;38.78;;
17151;SDS011;8691;50.828;4.700;2023-02-15T06:59:21;34.90;;;27.13;;
17151;SDS011;8691;50.828;4.700;2023-02-15T07:01:48;40.37;;;30.83;;
17151;SDS011;8691;50.828;4.700;2023-02-15T07:04:15;44.83;;;34.10;;
17151;SDS011;8691;50.828;4.700;2023-02-15T07:06:42;41.87;;;32.83;;
17151;SDS011;8691;50.828;4.700;2023-02-15T07:09:08;42.30;;;32.07;;
17151;SDS011;8691;50.828;4.700;2023-02-15T07:11:35;43.30;;;32.13;;
17151;SDS011;8691;50.828;4.700;2023-02-15T07:14:20;34.50;;;23.60;;
17151;SDS011;8691;50.828;4.700;2023-02-15T07:16:47;42.97;;;31.60;;
17151;SDS011;8691;50.828;4.700;2023-02-15T07:19:14;42.67;;;32.13;;
17151;SDS011;8691;50.828;4.700;2023-02-15T07:21:42;42.77;;;32.63;;
17151;SDS011;8691;50.828;4.700;2023-02-15T07:24:08;42.97;;;32.08;;
17151;SDS011;8691;50.828;4.700;2023-02-15T07:26:35;41.57;;;31.87;;
17151;SDS011;8691;50.828;4.700;2023-02-15T07:29:02;40.00;;;31.23;;
17151;SDS011;8691;50.828;4.700;2023-02-15T07:31:29;42.57;;;32.53;;
17151;SDS011;8691;50.828;4.700;2023-02-15T07:33:56;40.37;;;30.77;;
17151;SDS011;8691;50.828;4.700;2023-02-15T07:36:23;38.40;;;30.90;;
17151;SDS011;8691;50.828;4.700;2023-02-15T07:38:50;38.23;;;30.97;;
17151;SDS011;8691;50.828;4.700;2023-02-15T07:41:18;37.85;;;30.23;;
17151;SDS011;8691;50.828;4.700;2023-02-15T07:43:45;38.85;;;29.95;;
17151;SDS011;8691;50.828;4.700;2023-02-15T07:46:13;37.88;;;30.10;;
17151;SDS011;8691;50.828;4.700;2023-02-15T07:48:39;36.42;;;29.52;;
17151;SDS011;8691;50.828;4.700;2023-02-15T07:51:06;40.42;;;29.45;;
17151;SDS011;8691;50.828;4.700;2023-02-15T07:53:33;40.67;;;30.42;;
17151;SDS011;8691;50.828;4.700;2023-02-15T07:56:00;37.10;;;29.90;;
17151;SDS011;8691;50.828;4.700;2023-02-15T07:58:26;37.27;;;29.37;;
17151;SDS011;8691;50.828;4.700;2023-02-15T08:00:55;30.23;;;22.53;;
17151;SDS011;8691;50.828;4.700;2023-02-15T08:03:23;37.42;;;28.35;;
17151;SDS011;8691;50.828;4.700;2023-02-15T08:05:49;34.55;;;28.23;;
17151;SDS011;8691;50.828;4.700;2023-02-15T08:08:16;35.55;;;28.42;;
17151;SDS011;8691;50.828;4.700;2023-02-15T08:11:13;35.08;;;27.40;;
17151;SDS011;8691;50.828;4.700;2023-02-15T08:13:50;28.43;;;21.80;;
17151;SDS011;8691;50.828;4.700;2023-02-15T08:16:44;30.20;;;25.10;;
17151;SDS011;8691;50.828;4.700;2023-02-15T08:18:55;32.97;;;26.47;;
17151;SDS011;8691;50.828;4.700;2023-02-15T08:21:21;31.73;;;27.03;;
17151;SDS011;8691;50.828;4.700;2023-02-15T08:23:48;29.37;;;22.23;;
17151;SDS011;8691;50.828;4.700;2023-02-15T08:26:15;34.28;;;26.70;;
17151;SDS011;8691;50.828;4.700;2023-02-15T08:28:41;31.25;;;25.20;;
17151;SDS011;8691;50.828;4.700;2023-02-15T08:31:09;28.80;;;24.80;;
17151;SDS011;8691;50.828;4.700;2023-02-15T08:33:36;28.63;;;24.40;;
17151;SDS011;8691;50.828;4.700;2023-02-15T08:36:03;32.75;;;26.15;;
17151;SDS011;8691;50.828;4.700;2023-02-15T08:38:29;30.48;;;25.23;;
17151;SDS011;8691;50.828;4.700;2023-02-15T08:40:56;31.23;;;26.20;;
17151;SDS011;8691;50.828;4.700;2023-02-15T08:43:23;30.73;;;25.20;;
17151;SDS011;8691;50.828;4.700;2023-02-15T08:45:50;32.72;;;25.83;;
17151;SDS011;8691;50.828;4.700;2023-02-15T08:48:17;27.92;;;24.77;;
17151;SDS011;8691;50.828;4.700;2023-02-15T08:50:43;28.58;;;24.80;;
17151;SDS011;8691;50.828;4.700;2023-02-15T08:53:10;29.45;;;24.95;;
17151;SDS011;8691;50.828;4.700;2023-02-15T08:55:37;29.90;;;25.00;;
17151;SDS011;8691;50.828;4.700;2023-02-15T08:58:04;27.50;;;24.50;;
17151;SDS011;8691;50.828;4.700;2023-02-15T09:00:32;29.00;;;24.40;;
17151;SDS011;8691;50.828;4.700;2023-02-15T09:02:59;31.73;;;24.20;;
17151;SDS011;8691;50.828;4.700;2023-02-15T09:05:27;30.20;;;24.70;;
17151;SDS011;8691;50.828;4.700;2023-02-15T09:07:54;28.07;;;24.50;;
17151;SDS011;8691;50.828;4.700;2023-02-15T09:10:21;30.25;;;24.75;;
17151;SDS011;8691;50.828;4.700;2023-02-15T09:12:48;28.73;;;24.13;;
17151;SDS011;8691;50.828;4.700;2023-02-15T09:15:15;25.90;;;22.90;;
17151;SDS011;8691;50.828;4.700;2023-02-15T09:17:42;27.42;;;23.20;;
17151;SDS011;8691;50.828;4.700;2023-02-15T09:20:08;28.77;;;23.35;;
17151;SDS011;8691;50.828;4.700;2023-02-15T09:22:35;28.35;;;23.98;;
17151;SDS011;8691;50.828;4.700;2023-02-15T09:25:02;28.10;;;23.67;;
17151;SDS011;8691;50.828;4.700;2023-02-15T09:27:29;27.15;;;22.75;;
17151;SDS011;8691;50.828;4.700;2023-02-15T09:29:56;26.98;;;23.25;;
17151;SDS011;8691;50.828;4.700;2023-02-15T09:32:23;27.05;;;22.83;;
17151;SDS011;8691;50.828;4.700;2023-02-15T09:34:51;26.70;;;23.55;;
17151;SDS011;8691;50.828;4.700;2023-02-15T09:37:18;28.27;;;23.27;;
17151;SDS011;8691;50.828;4.700;2023-02-15T09:39:46;27.53;;;23.17;;
17151;SDS011;8691;50.828;4.700;2023-02-15T09:52:45;26.05;;;22.15;;
17151;SDS011;8691;50.828;4.700;2023-02-15T09:55:21;24.27;;;21.67;;
17151;SDS011;8691;50.828;4.700;2023-02-15T10:03:45;24.17;;;20.80;;
17151;SDS011;8691;50.828;4.700;2023-02-15T10:20:13;27.73;;;20.10;;
17151;SDS011;8691;50.828;4.700;2023-02-15T10:27:51;30.55;;;20.70;;
17151;SDS011;8691;50.828;4.700;2023-02-15T10:30:18;25.85;;;20.90;;
17151;SDS011;8691;50.828;4.700;2023-02-15T10:33:00;26.88;;;20.83;;
17151;SDS011;8691;50.828;4.700;2023-02-15T10:35:30;26.92;;;20.52;;
17151;SDS011;8691;50.828;4.700;2023-02-15T10:38:20;25.58;;;20.40;;
17151;SDS011;8691;50.828;4.700;2023-02-15T10:45:53;27.33;;;20.83;;
17151;SDS011;8691;50.828;4.700;2023-02-15T10:48:39;24.33;;;19.98;;
17151;SDS011;8691;50.828;4.700;2023-02-15T10:51:04;25.50;;;19.77;;
17151;SDS011;8691;50.828;4.700;2023-02-15T10:59:04;27.55;;;20.52;;
17151;SDS011;8691;50.828;4.700;2023-02-15T11:01:57;24.67;;;20.27;;
17151;SDS011;8691;50.828;4.700;2023-02-15T11:07:02;27.12;;;20.33;;
17151;SDS011;8691;50.828;4.700;2023-02-15T11:09:36;27.03;;;20.23;;
17151;SDS011;8691;50.828;4.700;2023-02-15T11:12:00;24.23;;;20.48;;
17151;SDS011;8691;50.828;4.700;2023-02-15T11:14:46;26.50;;;21.40;;
17151;SDS011;8691;50.828;4.700;2023-02-15T11:17:46;27.80;;;21.13;;
17151;SDS011;8691;50.828;4.700;2023-02-15T11:22:49;28.05;;;20.83;;
17151;SDS011;8691;50.828;4.700;2023-02-15T11:25:17;28.23;;;21.62;;
17151;SDS011;8691;50.828;4.700;2023-02-15T11:27:42;29.43;;;22.00;;
17151;SDS011;8691;50.828;4.700;2023-02-15T11:30:13;29.88;;;21.50;;
17151;SDS011;8691;50.828;4.700;2023-02-15T11:32:40;28.48;;;22.02;;
17151;SDS011;8691;50.828;4.700;2023-02-15T11:37:37;28.55;;;21.85;;
17151;SDS011;8691;50.828;4.700;2023-02-15T11:40:08;29.70;;;22.48;;
17151;SDS011;8691;50.828;4.700;2023-02-15T11:42:31;29.35;;;21.77;;
17151;SDS011;8691;50.828;4.700;2023-02-15T11:44:59;29.02;;;22.23;;
17151;SDS011;8691;50.828;4.700;2023-02-15T11:47:25;29.27;;;22.53;;
17151;SDS011;8691;50.828;4.700;2023-02-15T11:49:52;30.45;;;21.95;;
17151;SDS011;8691;50.828;4.700;2023-02-15T11:52:19;28.52;;;21.98;;
17151;SDS011;8691;50.828;4.700;2023-02-15T11:54:46;30.37;;;22.77;;
17151;SDS011;8691;50.828;4.700;2023-02-15T11:57:17;30.95;;;23.15;;
17151;SDS011;8691;50.828;4.700;2023-02-15T12:00:00;31.23;;;22.52;;
17151;SDS011;8691;50.828;4.700;2023-02-15T12:02:39;29.48;;;22.30;;
17151;SDS011;8691;50.828;4.700;2023-02-15T12:05:08;28.62;;;22.58;;
17151;SDS011;8691;50.828;4.700;2023-02-15T12:13:14;31.85;;;22.92;;
17151;SDS011;8691;50.828;4.700;2023-02-15T12:15:47;32.97;;;23.35;;
17151;SDS011;8691;50.828;4.700;2023-02-15T12:18:21;28.93;;;22.67;;
17151;SDS011;8691;50.828;4.700;2023-02-15T12:21:08;29.77;;;23.27;;
17151;SDS011;8691;50.828;4.700;2023-02-15T12:23:34;31.93;;;23.30;;
17151;SDS011;8691;50.828;4.700;2023-02-15T12:26:00;30.58;;;22.92;;
17151;SDS011;8691;50.828;4.700;2023-02-15T12:28:38;30.83;;;23.60;;
17151;SDS011;8691;50.828;4.700;2023-02-15T12:31:26;30.77;;;22.90;;
17151;SDS011;8691;50.828;4.700;2023-02-15T12:33:52;31.10;;;23.60;;
17151;SDS011;8691;50.828;4.700;2023-02-15T12:36:22;31.83;;;23.93;;
17151;SDS011;8691;50.828;4.700;2023-02-15T12:39:02;31.75;;;23.90;;
17151;SDS011;8691;50.828;4.700;2023-02-15T12:41:29;32.70;;;23.70;;
17151;SDS011;8691;50.828;4.700;2023-02-15T12:44:03;29.73;;;23.27;;
17151;SDS011;8691;50.828;4.700;2023-02-15T12:46:32;37.83;;;23.48;;
17151;SDS011;8691;50.828;4.700;2023-02-15T12:49:06;31.37;;;22.83;;
17151;SDS011;8691;50.828;4.700;2023-02-15T12:51:31;32.73;;;23.53;;
17151;SDS011;8691;50.828;4.700;2023-02-15T12:53:59;29.75;;;23.17;;
17151;SDS011;8691;50.828;4.700;2023-02-15T12:56:26;26.57;;;20.07;;
17151;SDS011;8691;50.828;4.700;2023-02-15T12:58:52;28.33;;;19.57;;
17151;SDS011;8691;50.828;4.700;2023-02-15T13:01:19;29.38;;;22.70;;
17151;SDS011;8691;50.828;4.700;2023-02-15T13:06:25;29.20;;;23.00;;
17151;SDS011;8691;50.828;4.700;2023-02-15T13:08:52;30.15;;;23.27;;
17151;SDS011;8691;50.828;4.700;2023-02-15T13:11:37;32.67;;;23.37;;
17151;SDS011;8691;50.828;4.700;2023-02-15T13:16:26;28.80;;;19.93;;
17151;SDS011;8691;50.828;4.700;2023-02-15T13:18:54;26.27;;;20.07;;
17151;SDS011;8691;50.828;4.700;2023-02-15T13:21:25;30.90;;;24.20;;
17151;SDS011;8691;50.828;4.700;2023-02-15T13:23:53;31.23;;;23.90;;
17151;SDS011;8691;50.828;4.700;2023-02-15T13:26:20;31.42;;;24.02;;
17151;SDS011;8691;50.828;4.700;2023-02-15T13:28:50;29.90;;;23.42;;
17151;SDS011;8691;50.828;4.700;2023-02-15T13:31:14;30.38;;;22.95;;
17151;SDS011;8691;50.828;4.700;2023-02-15T13:33:58;31.27;;;23.90;;
17151;SDS011;8691;50.828;4.700;2023-02-15T13:39:03;31.10;;;24.15;;
17151;SDS011;8691;50.828;4.700;2023-02-15T13:47:24;31.90;;;23.77;;
17151;SDS011;8691;50.828;4.700;2023-02-15T13:50:07;30.42;;;24.12;;
17151;SDS011;8691;50.828;4.700;2023-02-15T13:52:34;31.83;;;24.10;;
17151;SDS011;8691;50.828;4.700;2023-02-15T14:00:51;31.48;;;23.67;;
17151;SDS011;8691;50.828;4.700;2023-02-15T14:09:05;30.58;;;23.83;;
17151;SDS011;8691;50.828;4.700;2023-02-15T14:14:30;29.60;;;23.40;;
17151;SDS011;8691;50.828;4.700;2023-02-15T14:17:05;30.53;;;23.80;;
17151;SDS011;8691;50.828;4.700;2023-02-15T14:19:42;32.22;;;24.12;;
17151;SDS011;8691;50.828;4.700;2023-02-15T14:22:15;30.60;;;24.20;;
17151;SDS011;8691;50.828;4.700;2023-02-15T14:25:03;30.80;;;24.30;;
17151;SDS011;8691;50.828;4.700;2023-02-15T14:30:24;33.60;;;24.95;;
17151;SDS011;8691;50.828;4.700;2023-02-15T14:32:57;31.70;;;24.42;;
17151;SDS011;8691;50.828;4.700;2023-02-15T14:35:24;31.27;;;24.10;;
17151;SDS011;8691;50.828;4.700;2023-02-15T14:49:12;34.12;;;25.38;;
17151;SDS011;8691;50.828;4.700;2023-02-15T14:51:53;34.70;;;25.80;;
17151;SDS011;8691;50.828;4.700;2023-02-15T14:54:57;31.55;;;24.40;;
17151;SDS011;8691;50.828;4.700;2023-02-15T14:56:37;30.92;;;25.08;;
17151;SDS011;8691;50.828;4.700;2023-02-15T15:01:37;32.67;;;24.93;;
17151;SDS011;8691;50.828;4.700;2023-02-15T15:04:08;31.30;;;24.23;;
17151;SDS011;8691;50.828;4.700;2023-02-15T15:06:32;31.38;;;24.58;;
17151;SDS011;8691;50.828;4.700;2023-02-15T15:09:12;31.92;;;24.62;;
17151;SDS011;8691;50.828;4.700;2023-02-15T15:11:41;34.53;;;25.17;;
17151;SDS011;8691;50.828;4.700;2023-02-15T15:14:07;32.70;;;25.00;;
17151;SDS011;8691;50.828;4.700;2023-02-15T15:19:04;33.00;;;24.90;;
17151;SDS011;8691;50.828;4.700;2023-02-15T15:30:54;33.33;;;24.98;;
17151;SDS011;8691;50.828;4.700;2023-02-15T15:32:53;33.20;;;25.40;;
17151;SDS011;8691;50.828;4.700;2023-02-15T15:35:37;39.17;;;26.40;;
17151;SDS011;8691;50.828;4.700;2023-02-15T15:43:38;32.65;;;25.38;;
17151;SDS011;8691;50.828;4.700;2023-02-15T15:49:17;33.60;;;25.37;;
17151;SDS011;8691;50.828;4.700;2023-02-15T15:51:43;32.78;;;25.15;;
17151;SDS011;8691;50.828;4.700;2023-02-15T15:54:17;33.00;;;25.35;;
17151;SDS011;8691;50.828;4.700;2023-02-15T15:56:44;32.90;;;25.40;;
17151;SDS011;8691;50.828;4.700;2023-02-15T15:59:13;33.60;;;25.98;;
17151;SDS011;8691;50.828;4.700;2023-02-15T16:01:44;36.43;;;26.03;;
17151;SDS011;8691;50.828;4.700;2023-02-15T16:04:11;38.10;;;26.00;;
17151;SDS011;8691;50.828;4.700;2023-02-15T16:06:40;35.58;;;25.33;;
17151;SDS011;8691;50.828;4.700;2023-02-15T16:09:10;34.93;;;25.80;;
17151;SDS011;8691;50.828;4.700;2023-02-15T16:11:42;34.20;;;23.20;;
17151;SDS011;8691;50.828;4.700;2023-02-15T16:14:16;33.83;;;25.45;;
17151;SDS011;8691;50.828;4.700;2023-02-15T16:16:48;36.97;;;27.43;;
17151;SDS011;8691;50.828;4.700;2023-02-15T16:19:16;34.13;;;27.37;;
17151;SDS011;8691;50.828;4.700;2023-02-15T16:21:41;34.67;;;27.73;;
17151;SDS011;8691;50.828;4.700;2023-02-15T16:27:05;36.97;;;28.77;;
17151;SDS011;8691;50.828;4.700;2023-02-15T16:29:36;37.00;;;28.60;;
17151;SDS011;8691;50.828;4.700;2023-02-15T16:34:52;34.70;;;28.83;;
17151;SDS011;8691;50.828;4.700;2023-02-15T16:37:22;38.92;;;29.80;;
17151;SDS011;8691;50.828;4.700;2023-02-15T16:39:49;39.83;;;29.55;;
17151;SDS011;8691;50.828;4.700;2023-02-15T16:42:16;36.53;;;29.40;;
17151;SDS011;8691;50.828;4.700;2023-02-15T16:44:43;36.08;;;28.73;;
17151;SDS011;8691;50.828;4.700;2023-02-15T16:47:13;37.77;;;30.57;;
17151;SDS011;8691;50.828;4.700;2023-02-15T16:49:43;38.80;;;31.02;;
17151;SDS011;8691;50.828;4.700;2023-02-15T16:52:13;41.20;;;31.17;;
17151;SDS011;8691;50.828;4.700;2023-02-15T16:54:38;41.33;;;31.40;;
17151;SDS011;8691;50.828;4.700;2023-02-15T16:57:05;40.73;;;31.57;;
17151;SDS011;8691;50.828;4.700;2023-02-15T16:59:34;38.03;;;30.62;;
17151;SDS011;8691;50.828;4.700;2023-02-15T17:01:59;40.72;;;32.03;;
17151;SDS011;8691;50.828;4.700;2023-02-15T17:04:27;41.55;;;31.60;;
17151;SDS011;8691;50.828;4.700;2023-02-15T17:06:59;38.30;;;31.12;;
17151;SDS011;8691;50.828;4.700;2023-02-15T17:09:32;42.73;;;31.80;;
17151;SDS011;8691;50.828;4.700;2023-02-15T17:11:59;44.20;;;33.80;;
17151;SDS011;8691;50.828;4.700;2023-02-15T17:14:29;44.97;;;33.93;;
17151;SDS011;8691;50.828;4.700;2023-02-15T17:16:59;43.07;;;32.73;;
17151;SDS011;8691;50.828;4.700;2023-02-15T17:19:29;40.87;;;32.10;;
17151;SDS011;8691;50.828;4.700;2023-02-15T17:21:55;41.60;;;31.15;;